Aviation Digital Data Service (ADDS)

Output produced by TAFs form (1434 UTC 24 July 2017)
found at http://www.aviationweather.gov/adds/tafs/
 
METAR text: ROMY 241100Z 14003KT 120V190 9999 FEW022 SCT/// 29/25 Q1005
Conditions at: ROMY (MIYAKOJIMA ISLAN, JP) observed 1100 UTC 24 July 2017
Temperature: 29.0°C (84°F)
Dewpoint: 25.0°C (77°F) [RH = 79%]
Pressure (altimeter): 29.68 inches Hg (1005.0 mb)
Winds: from the SE (140 degrees) at 3 MPH (3 knots; 1.6 m/s)
Visibility: 6 or more miles (10+ km)
Ceiling: at least 12,000 feet AGL
Clouds: few clouds at 2200 feet AGL
Weather: no significant weather observed at this time